Impacts METAR Board INFO
IDs:

KMDW - Chicago/Midway Intl, IL, US

Updated at: 1537 UTC 23 Jan 2018
Potential Impact None Slight Moderate High
Time23/03Z 23/04Z 23/05Z 23/06Z 23/07Z 23/08Z 23/09Z 23/10Z 23/11Z 23/12Z 23/13Z 23/14Z 23/15Z
VIS10 10 10 10 10 10 10 2 1.5 1 1.25 8 10
CIG45 90 -- -- -- -- 22 10 7 5 18 70 16
CoverOVCOVCSCTFEWFEWSCTOVCOVCOVCOVCOVCBKNOVC
FltCatVFRVFRVFRVFRVFRVFRMVFRIFRIFRIFRIFRVFRMVFR
WX-RA-------------RA -SN BR-SN -RA BR-SN BR-SN BR----
WDir260240220230240250250250270310320320320
WSpd12 9 9 7 4 4 9 10 8 8 14 14 13
WGst21 -- -- -- -- -- -- -- -- -- 21 -- --
Raw hourly METARs
KMDW 230253Z 26012G21KT 10SM -RA FEW019 BKN045 OVC060 06/01 A2950 RMK AO2 RAB31 SLP993 P0000 60002 T00560011 50017
KMDW 230353Z 24009KT 10SM OVC090 05/01 A2950 RMK AO2 RAE01 SLP993 P0000 T00500011
KMDW 230453Z 22009KT 10SM FEW160 SCT220 04/01 A2951 RMK AO2 SLP995 T00390006
KMDW 230553Z COR 23007KT 10SM FEW040 03/00 A2951 RMK AO2 SLP996 60002 T00280000 10111 20028 401280028 50002
KMDW 230653Z 24004KT 10SM FEW040 02/M01 A2950 RMK AO2 SLP994 T00221006
KMDW 230753Z 25004KT 10SM FEW040 SCT250 02/M01 A2951 RMK AO2 SLP996 T00171011
KMDW 230853Z 25009KT 10SM BKN022 OVC026 03/00 A2953 RMK AO2 SLP003 T00280000 53007
KMDW 230953Z 25010KT 2SM -RASN BR BKN010 OVC019 02/01 A2954 RMK AO2 RAB17SNB36 SLP008 P0001 T00220006
KMDW 231053Z 27008KT 1 1/2SM -SNRA BR BKN007 OVC011 01/01 A2957 RMK AO2 SLP019 P0002 T00110006
KMDW 231153Z 31008KT 1SM R31C/P6000FT -SN BR BKN005 OVC011 01/00 A2960 RMK AO2 RAE15 SLP030 P0002 60005 70029 T00060000 10033 20006 51021
KMDW 231253Z 32014G21KT 1 1/4SM -SN BR SCT009 OVC018 00/M01 A2965 RMK AO2 SLP047 P0001 T00001011
KMDW 231353Z 32014KT 8SM FEW012 SCT026 BKN070 00/M02 A2969 RMK AO2 SNE44 SLP063 P0000 T00001022
KMDW 231453Z 32013KT 10SM OVC016 01/M02 A2974 RMK AO2 SLP078 60001 T00061022 51045